Terminal Aerodrome Forecast
Issued by NWS Wilmington, OH

Home | Current Version | Previous Version | Text Only | Print | Product List | Glossary On
Versions: 1 2 3 4 5 6 7 8 9 10 11 12 13 14 15 16 17 18 19
085
FTUS41 KILN 102330
TAFDAY
TAF
KDAY 102330Z 1100/1124 23008KT P6SM OVC040
     FM110400 28005KT P6SM SCT035
     FM110900 VRB03KT P6SM SCT030
     FM111300 19005KT P6SM BKN100
     FM111800 19009G18KT P6SM BKN200=

USA.gov is the U.S. government's official web portal to all federal, state and local government web resources and services.